Time;durP1;ratioP1;P1;durP2;ratioP2;P2;SDS_P1;SDS_P2;PMS_P1;PMS_P2;Temp;Humidity;BMP_temperature;BMP_pressure;BME280_temperature;BME280_humidity;BME280_pressure;Samples;Min_cycle;Max_cycle;Signal;HPM_P1;HPM_P2
2023/05/05 00:01:26;;;;;;;0.10;0.10;;;10.00;1.00;;;;;;5040506;28;20160;-83
2023/05/05 00:03:52;;;;;;;0.82;0.50;;;10.70;99.90;;;;;;5039412;28;20092;-84
2023/05/05 00:06:17;;;;;;;0.20;0.20;;;9.90;99.90;;;;;;5051539;28;20045;-83
2023/05/05 00:08:43;;;;;;;0.63;0.60;;;9.90;1.00;;;;;;5058198;28;20033;-83
2023/05/05 00:11:09;;;;;;;0.10;0.10;;;10.00;1.00;;;;;;5057873;28;20040;-83
2023/05/05 00:13:35;;;;;;;0.28;0.17;;;10.00;67.60;;;;;;5059296;28;20045;-85
2023/05/05 00:16:00;;;;;;;0.30;0.30;;;10.00;99.90;;;;;;5059641;28;20052;-83
2023/05/05 00:18:27;;;;;;;0.20;0.20;;;9.90;99.90;;;;;;5059102;28;20045;-84
2023/05/05 00:20:52;;;;;;;0.28;0.28;;;9.90;99.90;;;;;;5059868;28;20045;-83
2023/05/05 00:23:19;;;;;;;0.00;0.00;;;9.90;99.90;;;;;;5058055;28;20103;-83
2023/05/05 00:25:45;;;;;;;0.22;0.22;;;10.70;94.10;;;;;;5048461;28;20033;-83
2023/05/05 00:28:12;;;;;;;0.40;0.40;;;9.80;89.10;;;;;;5047183;28;20053;-84
2023/05/05 00:30:39;;;;;;;1.35;0.38;;;9.80;1.00;;;;;;5060147;28;20384;-83
2023/05/05 00:33:04;;;;;;;0.75;0.47;;;9.90;1.00;;;;;;5060251;28;20451;-83
2023/05/05 00:35:30;;;;;;;9.75;0.68;;;11.20;99.90;;;;;;5045699;28;20037;-83
2023/05/05 00:37:56;;;;;;;2.08;1.73;;;9.80;99.90;;;;;;5058217;28;20045;-84
2023/05/05 00:40:22;;;;;;;0.50;0.40;;;9.80;1.00;;;;;;5058955;28;20072;-83
2023/05/05 00:42:51;;;;;;;2.72;1.00;;;10.60;99.90;;;;;;5049817;28;20044;-84
2023/05/05 00:45:18;;;;;;;0.68;0.52;;;9.80;98.40;;;;;;5039489;28;20041;-84
2023/05/05 00:47:47;;;;;;;0.10;0.05;;;9.80;99.90;;;;;;5041529;28;20117;-83
2023/05/05 00:50:27;;;;;;;0.75;0.40;;;9.70;1.00;;;;;;5039976;28;20038;-83
2023/05/05 00:52:56;;;;;;;0.10;0.10;;;9.70;1.00;;;;;;5048957;28;20037;-83
2023/05/05 00:55:22;;;;;;;0.20;0.20;;;9.70;1.00;;;;;;5056395;28;20063;-84
2023/05/05 00:57:48;;;;;;;0.75;0.52;;;9.70;26.10;;;;;;5041437;28;20041;-83
2023/05/05 01:00:15;;;;;;;0.28;0.28;;;9.70;99.90;;;;;;5039127;28;20076;-83
2023/05/05 01:02:41;;;;;;;1.00;0.52;;;9.80;1.00;;;;;;5036895;28;20041;-83
2023/05/05 01:05:12;;;;;;;0.17;0.10;;;9.80;99.90;;;;;;5039371;28;20045;-83
2023/05/05 01:07:53;;;;;;;0.25;0.25;;;9.90;99.90;;;;;;5039024;28;20065;-83
2023/05/05 01:10:30;;;;;;;0.25;0.25;;;9.90;1.00;;;;;;5037554;28;20045;-83
2023/05/05 01:13:03;;;;;;;21.45;2.20;;;9.90;1.00;;;;;;5038323;28;20056;-83
2023/05/05 01:15:36;;;;;;;1.17;0.90;;;10.00;99.90;;;;;;5037327;28;20057;-83
2023/05/05 01:18:35;;;;;;;0.08;0.08;;;10.00;99.90;;;;;;5037491;28;20049;-83
2023/05/05 01:21:14;;;;;;;0.10;0.10;;;10.00;52.50;;;;;;5038748;28;20125;-83
2023/05/05 01:23:48;;;;;;;0.22;0.22;;;10.00;99.90;;;;;;5037084;28;20055;-83
2023/05/05 01:26:51;;;;;;;0.57;0.35;;;10.00;99.90;;;;;;5038315;28;20045;-83
2023/05/05 01:29:21;;;;;;;0.05;0.03;;;10.00;86.60;;;;;;5053452;28;20099;-84
2023/05/05 01:31:56;;;;;;;0.20;0.20;;;10.10;1.00;;;;;;5058071;28;20452;-83
2023/05/05 01:34:28;;;;;;;3.30;1.48;;;10.10;1.00;;;;;;5050642;28;20089;-83
2023/05/05 01:37:07;;;;;;;0.20;0.15;;;10.30;99.90;;;;;;5046146;28;20040;-83
2023/05/05 01:39:35;;;;;;;0.80;0.63;;;10.30;99.90;;;;;;5047745;28;20052;-83
2023/05/05 01:42:07;;;;;;;7.18;0.65;;;10.30;99.90;;;;;;5040209;28;20041;-83
2023/05/05 01:44:35;;;;;;;0.10;0.10;;;10.40;99.90;;;;;;5041998;28;20499;-83
2023/05/05 01:47:02;;;;;;;0.75;0.68;;;10.40;99.90;;;;;;5051491;28;20049;-84
2023/05/05 01:49:28;;;;;;;0.30;0.05;;;10.90;99.90;;;;;;5060190;28;20041;-84
2023/05/05 01:51:55;;;;;;;0.80;0.65;;;10.40;99.90;;;;;;5061373;28;20045;-84
2023/05/05 01:54:23;;;;;;;0.30;0.22;;;10.50;99.90;;;;;;5061036;28;20136;-83
2023/05/05 01:56:52;;;;;;;1.75;0.20;;;10.50;96.80;;;;;;5061791;28;20096;-84
2023/05/05 01:59:19;;;;;;;3.83;1.02;;;11.40;35.30;;;;;;5061772;28;20490;-84
2023/05/05 02:01:47;;;;;;;0.52;0.50;;;10.60;99.90;;;;;;5061232;28;20053;-84
2023/05/05 02:04:16;;;;;;;1.38;0.40;;;10.50;99.90;;;;;;5042688;28;20045;-84
2023/05/05 02:06:44;;;;;;;2.75;0.52;;;10.50;99.90;;;;;;5042173;28;20049;-83
2023/05/05 02:09:12;;;;;;;0.52;0.52;;;10.50;75.80;;;;;;5039868;28;20128;-84
2023/05/05 02:11:39;;;;;;;0.10;0.10;;;10.50;99.90;;;;;;5040534;28;20049;-84
2023/05/05 02:14:06;;;;;;;0.10;0.10;;;10.40;99.90;;;;;;5041101;28;20045;-84
2023/05/05 02:16:34;;;;;;;0.45;0.25;;;10.40;99.90;;;;;;5045546;28;20041;-83
2023/05/05 02:19:03;;;;;;;0.65;0.38;;;10.40;99.90;;;;;;5060812;28;20083;-84
2023/05/05 02:21:30;;;;;;;0.30;0.30;;;10.40;99.90;;;;;;5059976;28;20088;-84
2023/05/05 02:23:57;;;;;;;0.57;0.57;;;10.40;99.90;;;;;;5042111;28;20037;-84
2023/05/05 02:26:24;;;;;;;0.20;0.20;;;10.30;99.90;;;;;;5044278;28;20048;-84
2023/05/05 02:29:15;;;;;;;0.22;0.22;;;10.40;99.90;;;;;;5059902;28;20053;-84
2023/05/05 02:31:50;;;;;;;0.70;0.70;;;10.40;99.90;;;;;;5059659;28;20041;-84
2023/05/05 02:34:22;;;;;;;0.47;0.40;;;10.40;99.90;;;;;;5044244;28;20053;-84
2023/05/05 02:36:52;;;;;;;0.68;0.43;;;10.50;99.90;;;;;;5039839;28;20467;-84
2023/05/05 02:39:30;;;;;;;0.20;0.13;;;10.40;99.90;;;;;;5041056;28;20073;-84
2023/05/05 02:42:01;;;;;;;3.45;0.75;;;10.40;99.90;;;;;;5041453;28;20049;-83
2023/05/05 02:44:29;;;;;;;0.57;0.40;;;10.30;99.90;;;;;;5041128;28;20049;-84
2023/05/05 02:46:56;;;;;;;0.47;0.47;;;10.20;99.90;;;;;;5040474;28;20091;-84
2023/05/05 02:49:22;;;;;;;17.35;2.03;;;10.20;99.90;;;;;;5040709;28;20041;-84
2023/05/05 02:51:47;;;;;;;0.45;0.35;;;10.20;99.90;;;;;;5039164;28;20045;-84
2023/05/05 02:54:13;;;;;;;53.10;3.35;;;10.20;1.00;;;;;;5038668;28;20061;-85
2023/05/05 02:56:46;;;;;;;0.38;0.28;;;10.20;18.60;;;;;;5039591;28;20049;-84
2023/05/05 02:59:25;;;;;;;0.55;0.43;;;10.10;99.90;;;;;;5038849;28;20041;-84
2023/05/05 03:01:58;;;;;;;0.38;0.38;;;10.00;99.90;;;;;;5039290;28;20076;-84
2023/05/05 03:04:32;;;;;;;0.22;0.20;;;10.00;1.00;;;;;;5039650;28;20057;-84
2023/05/05 03:07:05;;;;;;;0.32;0.32;;;10.00;99.90;;;;;;5046563;28;20076;-84
2023/05/05 03:09:40;;;;;;;0.32;0.32;;;9.90;1.00;;;;;;5058388;28;20041;-84
2023/05/05 03:12:09;;;;;;;1.55;0.95;;;9.90;62.60;;;;;;5041746;28;20847;-84
2023/05/05 03:14:42;;;;;;;0.73;0.55;;;9.90;1.00;;;;;;5054074;28;20041;-85
2023/05/05 03:17:12;;;;;;;0.28;0.20;;;9.80;1.00;;;;;;5048643;28;20406;-84
2023/05/05 03:19:41;;;;;;;0.20;0.20;;;9.80;99.90;;;;;;5060553;28;20068;-84
2023/05/05 03:22:07;;;;;;;0.20;0.20;;;9.80;99.90;;;;;;5042673;28;20128;-84
2023/05/05 03:24:33;;;;;;;0.10;0.10;;;9.70;99.90;;;;;;5040097;28;20085;-83
2023/05/05 03:26:58;;;;;;;1.47;0.60;;;9.80;99.90;;;;;;5048174;28;20037;-83
2023/05/05 03:29:24;;;;;;;0.15;0.10;;;9.70;96.50;;;;;;5059795;28;20064;-83
2023/05/05 03:31:50;;;;;;;2.10;1.00;;;9.70;99.90;;;;;;5059227;28;20041;-84
2023/05/05 03:34:15;;;;;;;1.33;1.23;;;9.50;1.00;;;;;;5059811;28;20044;-83
2023/05/05 03:36:41;;;;;;;0.60;0.52;;;9.40;99.90;;;;;;5054553;28;20041;-83
2023/05/05 03:39:07;;;;;;;0.10;0.10;;;9.20;1.00;;;;;;5039346;28;20049;-84
2023/05/05 03:41:33;;;;;;;0.20;0.10;;;9.20;99.90;;;;;;5050262;28;20052;-83
2023/05/05 03:43:58;;;;;;;0.40;0.40;;;9.00;99.90;;;;;;5059124;28;20796;-84
2023/05/05 03:46:24;;;;;;;0.98;0.80;;;9.20;1.00;;;;;;5039532;28;20076;-84
2023/05/05 03:48:50;;;;;;;0.08;0.08;;;9.00;99.90;;;;;;5038092;28;20491;-85
2023/05/05 03:51:16;;;;;;;0.38;0.38;;;9.00;99.90;;;;;;5046515;28;20123;-84
2023/05/05 03:53:42;;;;;;;4.70;0.38;;;9.00;99.90;;;;;;5058077;28;20080;-85
2023/05/05 03:56:07;;;;;;;0.30;0.10;;;9.70;1.00;;;;;;5058445;28;20053;-84
2023/05/05 03:58:33;;;;;;;1.63;1.13;;;9.10;1.00;;;;;;5039402;28;20510;-84
2023/05/05 04:00:59;;;;;;;0.28;0.28;;;9.20;99.90;;;;;;5038793;28;20045;-83
2023/05/05 04:03:24;;;;;;;1.15;0.77;;;9.30;1.00;;;;;;5038423;28;20048;-84
2023/05/05 04:05:50;;;;;;;0.55;0.43;;;9.40;99.90;;;;;;5039223;28;20052;-84
2023/05/05 04:08:16;;;;;;;0.00;0.00;;;9.50;99.90;;;;;;5053423;28;20051;-84
2023/05/05 04:10:41;;;;;;;0.10;0.10;;;9.50;99.90;;;;;;5057355;28;20075;-85
2023/05/05 04:13:07;;;;;;;2.47;0.65;;;9.60;87.70;;;;;;5057912;28;20044;-84
2023/05/05 04:15:33;;;;;;;0.75;0.63;;;9.60;99.90;;;;;;5057795;28;20051;-84
2023/05/05 04:17:59;;;;;;;0.00;0.00;;;9.70;99.90;;;;;;5042336;28;20041;-86
2023/05/05 04:20:24;;;;;;;1.65;0.50;;;9.70;1.00;;;;;;5036290;28;20241;-84
2023/05/05 04:22:50;;;;;;;0.30;0.10;;;9.60;27.00;;;;;;5036019;28;20049;-84
2023/05/05 04:25:16;;;;;;;0.00;0.00;;;9.60;99.90;;;;;;5041331;28;20051;-86
2023/05/05 04:27:41;;;;;;;0.63;0.63;;;9.50;1.00;;;;;;5043840;28;20080;-85
2023/05/05 04:30:08;;;;;;;0.22;0.22;;;9.70;99.90;;;;;;5034573;28;20042;-85
2023/05/05 04:32:33;;;;;;;1.98;0.63;;;9.30;1.00;;;;;;5035984;28;20053;-85
2023/05/05 04:34:59;;;;;;;0.13;0.13;;;10.40;99.90;;;;;;5049298;28;20112;-85
2023/05/05 04:37:25;;;;;;;0.43;0.43;;;10.20;99.90;;;;;;5060459;28;20059;-86
2023/05/05 04:39:51;;;;;;;3.17;0.52;;;9.10;99.90;;;;;;5054132;28;20044;-88
2023/05/05 04:42:17;;;;;;;1.52;1.08;;;8.90;99.90;;;;;;5053468;28;20970;-88
2023/05/05 04:44:42;;;;;;;0.28;0.28;;;8.70;99.90;;;;;;5051456;28;20093;-88
2023/05/05 04:47:08;;;;;;;0.45;0.30;;;8.60;99.90;;;;;;5040210;28;20044;-89
2023/05/05 04:49:33;;;;;;;0.25;0.22;;;9.50;99.90;;;;;;5045110;28;20077;-88
2023/05/05 04:51:59;;;;;;;0.00;0.00;;;8.50;99.90;;;;;;5034611;28;20049;-88
2023/05/05 04:54:25;;;;;;;1.38;0.63;;;8.70;99.90;;;;;;5035252;28;20061;-88
2023/05/05 04:56:50;;;;;;;0.05;0.05;;;8.40;99.90;;;;;;5034449;28;20094;-88
2023/05/05 04:59:16;;;;;;;0.35;0.35;;;8.40;99.90;;;;;;5041600;28;20045;-88
2023/05/05 05:01:42;;;;;;;2.50;0.82;;;8.40;99.90;;;;;;5054621;28;20037;-88
2023/05/05 05:04:09;;;;;;;1.48;1.08;;;8.50;99.90;;;;;;5054736;28;20052;-87
2023/05/05 05:06:35;;;;;;;1.33;0.45;;;8.50;99.90;;;;;;5035728;28;20133;-88
2023/05/05 05:09:01;;;;;;;1.00;0.50;;;8.50;99.90;;;;;;5034288;28;20045;-88
2023/05/05 05:11:26;;;;;;;0.00;0.00;;;8.50;99.90;;;;;;5034160;28;20038;-90
2023/05/05 05:13:52;;;;;;;1.10;0.70;;;8.50;99.90;;;;;;5035970;28;20037;-90
2023/05/05 05:16:18;;;;;;;0.30;0.30;;;8.50;99.90;;;;;;5039906;28;20103;-90
2023/05/05 05:18:44;;;;;;;0.10;0.10;;;7.30;99.90;;;;;;5038819;28;20042;-88
2023/05/05 05:21:10;;;;;;;0.85;0.38;;;8.50;99.90;;;;;;5037864;28;20041;-89
2023/05/05 05:23:36;;;;;;;0.43;0.38;;;8.50;99.90;;;;;;5037968;28;20060;-88
2023/05/05 05:26:04;;;;;;;0.40;0.40;;;8.50;99.90;;;;;;5049185;28;20037;-88
2023/05/05 05:28:30;;;;;;;0.25;0.25;;;8.50;99.90;;;;;;5041087;28;20045;-88
2023/05/05 05:30:55;;;;;;;0.22;0.22;;;8.40;99.90;;;;;;5037652;28;20387;-89
2023/05/05 05:33:21;;;;;;;0.30;0.30;;;8.40;99.90;;;;;;5035847;28;20067;-88
2023/05/05 05:35:46;;;;;;;0.38;0.30;;;8.40;99.90;;;;;;5037879;28;20056;-88
2023/05/05 05:38:12;;;;;;;1.10;0.75;;;8.50;99.90;;;;;;5036962;28;20591;-87
2023/05/05 05:40:38;;;;;;;0.80;0.80;;;8.60;99.90;;;;;;5036723;28;20123;-87
2023/05/05 05:43:03;;;;;;;0.20;0.20;;;9.90;99.90;;;;;;5037623;28;20045;-87
2023/05/05 05:45:29;;;;;;;0.00;0.00;;;8.70;99.90;;;;;;5037814;28;20054;-86
2023/05/05 05:47:54;;;;;;;1.10;0.98;;;8.70;99.90;;;;;;5037092;28;20049;-88
2023/05/05 05:50:20;;;;;;;0.68;0.55;;;8.70;99.90;;;;;;5036719;28;20415;-87
2023/05/05 05:52:46;;;;;;;0.10;0.10;;;8.70;99.90;;;;;;5036711;28;20038;-87
2023/05/05 05:55:12;;;;;;;0.32;0.32;;;8.70;99.90;;;;;;5036461;28;20065;-87
2023/05/05 05:57:37;;;;;;;0.00;0.00;;;8.80;99.90;;;;;;5037026;28;20132;-87
2023/05/05 06:00:03;;;;;;;0.15;0.15;;;8.90;99.90;;;;;;5037324;28;20049;-87
2023/05/05 06:02:29;;;;;;;0.80;0.77;;;9.10;99.90;;;;;;5037239;28;20037;-87
2023/05/05 06:04:55;;;;;;;13.27;2.83;;;10.00;99.90;;;;;;5037592;28;20037;-87
2023/05/05 06:07:20;;;;;;;1.48;1.13;;;9.10;99.90;;;;;;5036893;28;20077;-87
2023/05/05 06:09:46;;;;;;;2.53;0.57;;;9.10;99.90;;;;;;5037700;28;20228;-86
2023/05/05 06:12:12;;;;;;;1.23;0.40;;;9.20;99.90;;;;;;5036998;28;20076;-86
2023/05/05 06:14:37;;;;;;;0.20;0.20;;;9.20;99.90;;;;;;5036997;28;20049;-86
2023/05/05 06:17:03;;;;;;;0.45;0.43;;;9.20;99.90;;;;;;5052600;28;20099;-86
2023/05/05 06:19:29;;;;;;;1.13;1.02;;;9.20;99.90;;;;;;5056618;28;20120;-86
2023/05/05 06:21:55;;;;;;;0.90;0.40;;;9.30;99.90;;;;;;5056640;28;20096;-85
2023/05/05 06:24:20;;;;;;;0.20;0.20;;;9.30;99.90;;;;;;5056775;28;20499;-85
2023/05/05 06:26:46;;;;;;;7.15;2.15;;;9.40;99.90;;;;;;5056784;28;20056;-85
2023/05/05 06:29:11;;;;;;;0.65;0.57;;;9.40;99.90;;;;;;5053016;28;20487;-85
2023/05/05 06:31:37;;;;;;;0.80;0.50;;;9.90;99.90;;;;;;5046626;28;20040;-85
2023/05/05 06:34:03;;;;;;;3.42;0.88;;;10.70;99.90;;;;;;5046880;28;20465;-85
2023/05/05 06:36:28;;;;;;;0.08;0.08;;;11.30;99.90;;;;;;5047026;28;20052;-86
2023/05/05 06:38:54;;;;;;;2.28;0.68;;;12.10;99.90;;;;;;5046190;28;20052;-85
2023/05/05 06:41:20;;;;;;;0.45;0.45;;;12.40;99.90;;;;;;5046470;28;20052;-85
2023/05/05 06:43:46;;;;;;;0.35;0.30;;;14.30;99.90;;;;;;5046895;28;20395;-85
2023/05/05 06:46:11;;;;;;;0.28;0.28;;;14.00;99.90;;;;;;5046188;28;20120;-85
2023/05/05 06:48:37;;;;;;;3.63;0.32;;;15.00;99.90;;;;;;5045773;28;20375;-85
2023/05/05 06:51:02;;;;;;;0.75;0.75;;;13.20;99.90;;;;;;5045182;28;20048;-85
2023/05/05 06:53:28;;;;;;;0.55;0.55;;;12.50;46.90;;;;;;5046094;28;20064;-85
2023/05/05 06:55:54;;;;;;;0.95;0.60;;;12.20;99.90;;;;;;5045459;28;20079;-85
2023/05/05 06:58:20;;;;;;;0.40;0.35;;;12.00;99.90;;;;;;5045541;28;20107;-85
2023/05/05 07:00:46;;;;;;;1.20;0.98;;;11.70;99.90;;;;;;5044600;28;20041;-85
2023/05/05 07:03:12;;;;;;;1.63;0.98;;;11.50;99.90;;;;;;5045509;28;20047;-85
2023/05/05 07:05:37;;;;;;;0.30;0.30;;;11.40;99.90;;;;;;5045241;28;20037;-85
2023/05/05 07:08:03;;;;;;;0.20;0.15;;;11.50;99.90;;;;;;5045372;28;20934;-85
2023/05/05 07:10:30;;;;;;;3.05;1.20;;;11.70;99.90;;;;;;5035831;28;20060;-85
2023/05/05 07:12:56;;;;;;;0.47;0.45;;;12.00;99.90;;;;;;5030741;28;20132;-85
2023/05/05 07:15:22;;;;;;;0.30;0.30;;;12.70;99.90;;;;;;5043283;28;20063;-85
2023/05/05 07:17:47;;;;;;;6.13;1.52;;;12.40;99.90;;;;;;5042929;28;20098;-85
2023/05/05 07:20:13;;;;;;;0.93;0.75;;;12.30;1.00;;;;;;5044876;28;20048;-85
2023/05/05 07:22:39;;;;;;;0.75;0.70;;;13.00;99.90;;;;;;5042724;28;20087;-84
2023/05/05 07:25:05;;;;;;;0.95;0.85;;;14.00;99.90;;;;;;5044751;28;20052;-84
2023/05/05 07:27:31;;;;;;;0.85;0.63;;;15.30;99.90;;;;;;5044243;28;20460;-85
2023/05/05 07:29:57;;;;;;;0.30;0.30;;;16.00;99.90;;;;;;5044508;28;20403;-85
2023/05/05 07:32:23;;;;;;;0.38;0.38;;;16.50;99.90;;;;;;5042615;28;20041;-85
2023/05/05 07:34:49;;;;;;;0.70;0.70;;;16.10;99.90;;;;;;5044236;28;20500;-85
2023/05/05 07:37:14;;;;;;;3.55;0.50;;;15.20;99.90;;;;;;5042961;28;20049;-85
2023/05/05 07:39:40;;;;;;;3.45;0.60;;;14.90;99.90;;;;;;5043994;28;20041;-85
2023/05/05 07:42:06;;;;;;;0.35;0.25;;;14.90;99.90;;;;;;5042240;28;20045;-85
2023/05/05 07:44:32;;;;;;;1.02;0.73;;;15.00;99.90;;;;;;5043510;28;20388;-85
2023/05/05 07:46:58;;;;;;;1.08;0.80;;;14.70;99.90;;;;;;5043837;28;20098;-85
2023/05/05 07:49:25;;;;;;;3.00;0.68;;;15.30;99.90;;;;;;5043891;28;20041;-85
2023/05/05 07:51:51;;;;;;;1.10;0.68;;;15.00;99.90;;;;;;5025743;28;20536;-85
2023/05/05 07:54:17;;;;;;;1.65;1.00;;;15.00;99.90;;;;;;5043736;28;20069;-85
2023/05/05 07:56:43;;;;;;;0.32;0.30;;;16.30;99.90;;;;;;5043928;28;20098;-85
2023/05/05 07:59:10;;;;;;;0.55;0.38;;;17.10;99.90;;;;;;5044012;28;20576;-85
2023/05/05 08:01:36;;;;;;;0.65;0.57;;;17.50;1.00;;;;;;5043958;28;20095;-85
2023/05/05 08:04:01;;;;;;;0.30;0.30;;;17.60;1.00;;;;;;5044067;28;20113;-85
2023/05/05 08:06:28;;;;;;;4.85;1.10;;;17.90;10.80;;;;;;5043627;28;20045;-85
2023/05/05 08:08:54;;;;;;;1.40;0.98;;;19.20;1.00;;;;;;5042111;28;20045;-85
2023/05/05 08:11:23;;;;;;;1.63;0.82;;;20.00;1.00;;;;;;5041623;28;20143;-85
2023/05/05 08:13:48;;;;;;;0.77;0.35;;;20.30;1.00;;;;;;5043638;28;20052;-85
2023/05/05 08:16:15;;;;;;;0.93;0.70;;;19.90;99.90;;;;;;5042996;28;20041;-85
2023/05/05 08:18:41;;;;;;;0.57;0.50;;;20.10;1.00;;;;;;5041306;28;20053;-85
2023/05/05 08:21:08;;;;;;;0.73;0.57;;;20.30;1.00;;;;;;5040851;28;20083;-85
2023/05/05 08:23:34;;;;;;;0.30;0.30;;;21.00;1.00;;;;;;5041403;28;20049;-85
2023/05/05 08:26:01;;;;;;;0.68;0.35;;;20.60;99.90;;;;;;5040647;28;20056;-85
2023/05/05 08:28:27;;;;;;;1.10;0.57;;;22.00;1.00;;;;;;5041225;28;20048;-85
2023/05/05 08:30:53;;;;;;;1.20;0.73;;;22.90;1.00;;;;;;5044815;28;20045;-85
2023/05/05 08:33:18;;;;;;;0.50;0.32;;;23.30;1.00;;;;;;5050913;28;20126;-85
2023/05/05 08:35:45;;;;;;;1.42;0.93;;;23.70;1.00;;;;;;5045295;28;20560;-84
2023/05/05 08:38:11;;;;;;;0.65;0.40;;;23.20;99.90;;;;;;5039296;28;20053;-85
2023/05/05 08:40:38;;;;;;;0.70;0.70;;;23.40;99.90;;;;;;5040871;28;20102;-85
2023/05/05 08:43:04;;;;;;;0.40;0.40;;;22.80;99.90;;;;;;5040900;28;20061;-85
2023/05/05 08:45:30;;;;;;;0.60;0.52;;;22.60;99.90;;;;;;5040194;28;20127;-84
2023/05/05 08:48:03;;;;;;;0.63;0.45;;;22.20;99.90;;;;;;5038894;28;20040;-85
2023/05/05 08:50:30;;;;;;;3.20;0.75;;;23.20;99.90;;;;;;5040173;28;20068;-85
2023/05/05 08:53:02;;;;;;;0.10;0.10;;;23.70;99.90;;;;;;5040836;28;20548;-85
2023/05/05 08:55:34;;;;;;;1.13;0.93;;;23.90;1.00;;;;;;5040347;28;20061;-84
2023/05/05 08:58:03;;;;;;;0.80;0.70;;;25.20;99.90;;;;;;5039423;28;20079;-85
2023/05/05 09:00:30;;;;;;;0.30;0.30;;;24.60;99.90;;;;;;5040365;28;20160;-84
2023/05/05 09:02:57;;;;;;;0.40;0.40;;;24.30;99.90;;;;;;5040454;28;20110;-84
2023/05/05 09:05:23;;;;;;;1.40;0.85;;;23.90;99.90;;;;;;5040975;28;20049;-84
2023/05/05 09:07:49;;;;;;;1.23;0.90;;;23.80;99.90;;;;;;5040343;28;20091;-84
2023/05/05 09:10:15;;;;;;;0.55;0.43;;;24.20;99.90;;;;;;5040299;28;20045;-85
2023/05/05 09:12:42;;;;;;;0.63;0.63;;;24.40;99.90;;;;;;5040258;28;20075;-84
2023/05/05 09:15:12;;;;;;;1.13;0.70;;;23.80;99.90;;;;;;5040684;28;20097;-84
2023/05/05 09:17:38;;;;;;;0.38;0.35;;;22.60;99.90;;;;;;5040039;28;20049;-84
2023/05/05 09:20:07;;;;;;;1.38;0.57;;;23.70;99.90;;;;;;5040209;28;20068;-84
2023/05/05 09:22:43;;;;;;;0.32;0.32;;;24.50;99.90;;;;;;5040529;28;20123;-84
2023/05/05 09:25:12;;;;;;;1.08;0.90;;;24.60;99.90;;;;;;5042399;28;20045;-85
2023/05/05 09:27:40;;;;;;;0.57;0.50;;;25.10;99.90;;;;;;5042310;28;20071;-85
2023/05/05 09:30:07;;;;;;;0.80;0.68;;;25.40;99.90;;;;;;5042114;28;20064;-84
2023/05/05 09:32:50;;;;;;;0.68;0.50;;;24.90;99.90;;;;;;5043215;28;20372;-84
2023/05/05 09:35:17;;;;;;;1.20;1.10;;;24.30;99.90;;;;;;5045192;28;20088;-84
2023/05/05 09:37:43;;;;;;;1.25;0.88;;;24.60;99.90;;;;;;5053914;28;20067;-84
2023/05/05 09:40:10;;;;;;;0.45;0.43;;;24.70;99.90;;;;;;5062948;28;20044;-85
2023/05/05 09:42:37;;;;;;;1.55;1.35;;;24.00;99.90;;;;;;5066470;28;20025;-84
2023/05/05 09:45:16;;;;;;;0.98;0.88;;;24.30;99.90;;;;;;5063201;28;20116;-84
2023/05/05 09:47:42;;;;;;;0.35;0.35;;;24.50;99.90;;;;;;5062525;28;20051;-84
2023/05/05 09:50:10;;;;;;;2.75;1.52;;;23.90;99.90;;;;;;5060566;28;20072;-84
2023/05/05 09:52:36;;;;;;;2.78;1.08;;;23.60;99.90;;;;;;5061446;28;20032;-84
2023/05/05 09:55:02;;;;;;;1.02;0.77;;;23.70;99.90;;;;;;5059484;28;20103;-84
2023/05/05 09:57:31;;;;;;;2.33;1.05;;;23.80;99.90;;;;;;5058239;28;20064;-84
2023/05/05 09:59:59;;;;;;;0.63;0.60;;;24.40;99.90;;;;;;5050656;28;20057;-84
2023/05/05 10:02:50;;;;;;;6.05;1.10;;;24.40;99.90;;;;;;5045239;28;20049;-84
2023/05/05 10:05:17;;;;;;;1.73;0.93;;;24.20;99.90;;;;;;5043095;28;20064;-84
2023/05/05 10:07:45;;;;;;;3.13;2.17;;;24.00;99.90;;;;;;5044503;28;20037;-84
2023/05/05 10:10:15;;;;;;;1.55;0.90;;;23.70;99.90;;;;;;5043801;28;20053;-84
2023/05/05 10:12:41;;;;;;;1.38;1.13;;;23.40;99.90;;;;;;5042894;28;20049;-84
2023/05/05 10:15:09;;;;;;;0.63;0.52;;;22.80;99.90;;;;;;5043906;28;20040;-84
2023/05/05 10:17:36;;;;;;;0.45;0.45;;;22.80;99.90;;;;;;5044837;28;20114;-84
2023/05/05 10:20:03;;;;;;;1.20;1.10;;;22.80;99.90;;;;;;5043458;28;20041;-84
2023/05/05 10:22:33;;;;;;;6.80;1.17;;;22.80;99.90;;;;;;5044814;28;20475;-84
2023/05/05 10:25:09;;;;;;;0.82;0.82;;;23.10;99.90;;;;;;5045872;28;20507;-84
2023/05/05 10:27:50;;;;;;;1.50;0.75;;;23.20;99.90;;;;;;5044954;28;20115;-84
2023/05/05 10:30:19;;;;;;;2.22;1.05;;;23.30;99.90;;;;;;5044743;28;20059;-84
2023/05/05 10:32:56;;;;;;;1.95;1.30;;;23.70;99.90;;;;;;5044743;28;20057;-84
2023/05/05 10:35:25;;;;;;;1.65;1.13;;;23.70;99.90;;;;;;5044997;28;20051;-84
2023/05/05 10:37:53;;;;;;;2.35;1.60;;;23.70;99.90;;;;;;5045175;28;20084;-84
2023/05/05 10:40:21;;;;;;;2.40;1.33;;;23.70;99.90;;;;;;5044501;28;20048;-84
2023/05/05 10:42:50;;;;;;;7.90;1.75;;;24.00;99.90;;;;;;5044456;28;20060;-84
2023/05/05 10:45:16;;;;;;;1.17;0.77;;;24.70;99.90;;;;;;5045090;28;20095;-84
2023/05/05 10:47:43;;;;;;;2.50;2.05;;;24.40;99.90;;;;;;5043693;28;20072;-84
2023/05/05 10:50:25;;;;;;;1.42;0.77;;;24.50;99.90;;;;;;5044139;28;20053;-84
2023/05/05 10:53:06;;;;;;;1.77;1.52;;;24.40;99.90;;;;;;5043882;28;20543;-84
2023/05/05 10:55:44;;;;;;;0.93;0.65;;;24.40;99.90;;;;;;5044241;28;20061;-84
2023/05/05 10:58:30;;;;;;;1.13;1.00;;;24.40;99.90;;;;;;5043938;28;20496;-84
2023/05/05 11:00:56;;;;;;;2.53;1.08;;;24.20;99.90;;;;;;5044822;28;20128;-83
2023/05/05 11:03:22;;;;;;;0.57;0.57;;;23.80;99.90;;;;;;5044167;28;20511;-83
2023/05/05 11:06:02;;;;;;;0.47;0.40;;;23.50;99.90;;;;;;5044080;28;20045;-84
2023/05/05 11:08:29;;;;;;;1.08;0.90;;;23.50;99.90;;;;;;5044222;28;20077;-84
2023/05/05 11:10:54;;;;;;;0.90;0.73;;;23.40;99.90;;;;;;5043442;28;20041;-84
2023/05/05 11:13:20;;;;;;;1.35;0.82;;;23.30;99.90;;;;;;5042940;28;20045;-84
2023/05/05 11:15:50;;;;;;;0.30;0.30;;;24.20;99.90;;;;;;5044155;28;20058;-84
2023/05/05 11:18:36;;;;;;;2.05;1.35;;;23.90;99.90;;;;;;5043727;28;20064;-84
2023/05/05 11:21:06;;;;;;;1.75;0.85;;;23.90;99.90;;;;;;5043782;28;20399;-84
2023/05/05 11:23:32;;;;;;;12.93;1.92;;;23.90;99.90;;;;;;5043649;28;20472;-84
2023/05/05 11:25:57;;;;;;;1.30;0.95;;;24.10;99.90;;;;;;5044129;28;20044;-83
2023/05/05 11:28:29;;;;;;;1.50;0.75;;;24.60;99.90;;;;;;5043204;28;20047;-84
2023/05/05 11:30:55;;;;;;;1.40;1.23;;;24.20;99.90;;;;;;5043469;28;20123;-84
2023/05/05 11:33:32;;;;;;;1.38;1.23;;;24.20;99.90;;;;;;5043961;28;20563;-84
2023/05/05 11:36:03;;;;;;;0.30;0.30;;;24.30;99.90;;;;;;5043765;28;21035;-84
2023/05/05 11:38:35;;;;;;;0.40;0.40;;;24.40;99.90;;;;;;5043630;28;20045;-84
2023/05/05 11:41:33;;;;;;;0.93;0.80;;;24.60;99.90;;;;;;5041405;28;20080;-84
2023/05/05 11:44:16;;;;;;;1.95;1.20;;;24.70;99.90;;;;;;5040830;28;20056;-84
2023/05/05 11:46:51;;;;;;;1.15;1.05;;;24.10;99.90;;;;;;5043376;28;20049;-84
2023/05/05 11:49:30;;;;;;;1.02;0.73;;;24.50;99.90;;;;;;5044090;28;20049;-84
2023/05/05 11:52:00;;;;;;;1.63;1.30;;;24.50;99.90;;;;;;5043139;28;20371;-84
2023/05/05 11:54:26;;;;;;;1.30;0.95;;;24.50;99.90;;;;;;5035840;28;20499;-85
2023/05/05 11:56:54;;;;;;;0.45;0.45;;;24.40;99.90;;;;;;5023651;28;20132;-84
2023/05/05 11:59:20;;;;;;;0.55;0.50;;;24.70;99.90;;;;;;5043443;28;20053;-84
2023/05/05 12:01:46;;;;;;;1.92;0.93;;;25.20;99.90;;;;;;5036026;28;20410;-84
2023/05/05 12:04:13;;;;;;;2.20;1.08;;;24.40;99.90;;;;;;5038947;28;20045;-85
2023/05/05 12:06:39;;;;;;;1.08;0.95;;;24.30;99.90;;;;;;5030590;28;20048;-84
2023/05/05 12:09:06;;;;;;;0.63;0.57;;;24.30;99.90;;;;;;5049304;28;20045;-84
2023/05/05 12:11:31;;;;;;;0.93;0.82;;;25.20;99.90;;;;;;5042723;28;20419;-84
2023/05/05 12:14:10;;;;;;;1.65;1.38;;;24.50;99.90;;;;;;5043071;28;20052;-84
2023/05/05 12:16:36;;;;;;;0.63;0.32;;;24.50;99.90;;;;;;5022561;28;20053;-84
2023/05/05 12:19:04;;;;;;;0.80;0.50;;;24.60;99.90;;;;;;5041162;28;20045;-84
2023/05/05 12:21:30;;;;;;;8.15;1.17;;;24.50;99.90;;;;;;5042353;28;20530;-84
2023/05/05 12:23:57;;;;;;;1.52;1.10;;;24.60;99.90;;;;;;5046404;28;20051;-84
2023/05/05 12:26:30;;;;;;;0.30;0.22;;;24.80;99.90;;;;;;5046923;28;20049;-84
2023/05/05 12:28:59;;;;;;;7.68;1.55;;;24.80;99.90;;;;;;5044325;28;20036;-84
2023/05/05 12:31:39;;;;;;;2.08;1.10;;;24.70;99.90;;;;;;5032917;28;20077;-84
2023/05/05 12:34:07;;;;;;;1.45;0.88;;;24.20;99.90;;;;;;5025781;28;20076;-84
2023/05/05 12:36:34;;;;;;;0.85;0.50;;;24.10;99.90;;;;;;5025053;28;20115;-84
2023/05/05 12:39:00;;;;;;;0.38;0.28;;;23.80;99.90;;;;;;5025137;28;20057;-84
2023/05/05 12:41:26;;;;;;;0.73;0.73;;;23.90;99.90;;;;;;5025666;28;20092;-84
2023/05/05 12:43:58;;;;;;;0.52;0.35;;;23.80;99.90;;;;;;5026696;28;20046;-84
2023/05/05 12:46:25;;;;;;;1.63;1.23;;;23.70;99.90;;;;;;5029294;28;20053;-84
2023/05/05 12:49:03;;;;;;;2.22;1.60;;;23.20;99.90;;;;;;5044532;28;20048;-84
2023/05/05 12:51:31;;;;;;;3.10;1.30;;;22.80;99.90;;;;;;5030167;28;20053;-83
2023/05/05 12:54:07;;;;;;;4.47;0.75;;;22.70;99.90;;;;;;5027749;28;20431;-84
2023/05/05 12:56:41;;;;;;;2.00;0.50;;;22.20;99.90;;;;;;5031208;28;20037;-83